Time;durP1;ratioP1;P1;durP2;ratioP2;P2;SDS_P1;SDS_P2;PMS_P1;PMS_P2;Temp;Humidity;BMP_temperature;BMP_pressure;BME280_temperature;BME280_humidity;BME280_pressure;Samples;Min_cycle;Max_cycle;Signal;HPM_P1;HPM_P2
2022/07/15 00:00:43;;;;;;;0.40;0.40;;;13.60;99.90;;;;;;4964503;28;20436;-64
2022/07/15 00:03:10;;;;;;;0.45;0.45;;;13.50;99.90;;;;;;4962557;28;20432;-64
2022/07/15 00:05:37;;;;;;;0.40;0.40;;;13.50;99.90;;;;;;4998241;28;20436;-64
2022/07/15 00:08:04;;;;;;;0.43;0.43;;;13.40;99.90;;;;;;4959017;28;20547;-64
2022/07/15 00:10:40;;;;;;;0.80;0.50;;;13.30;99.90;;;;;;4959078;28;20442;-63
2022/07/15 00:13:07;;;;;;;0.40;0.40;;;13.30;99.90;;;;;;4962546;28;20943;-64
2022/07/15 00:15:34;;;;;;;0.90;0.40;;;13.20;99.90;;;;;;4967601;28;20966;-64
2022/07/15 00:18:03;;;;;;;0.40;0.40;;;13.20;99.90;;;;;;4964310;28;20457;-63
2022/07/15 00:20:33;;;;;;;0.40;0.40;;;13.20;99.90;;;;;;4960220;28;20835;-63
2022/07/15 00:23:06;;;;;;;0.60;0.60;;;13.20;99.90;;;;;;4960653;28;20447;-63
2022/07/15 00:25:33;;;;;;;0.40;0.40;;;13.20;99.90;;;;;;4954957;28;20460;-63
2022/07/15 00:28:06;;;;;;;0.40;0.40;;;13.30;99.90;;;;;;4962698;28;20428;-63
2022/07/15 00:30:35;;;;;;;1.60;0.68;;;13.30;99.90;;;;;;4964844;28;20436;-63
2022/07/15 00:33:05;;;;;;;1.00;0.40;;;13.20;99.90;;;;;;4963902;28;20444;-63
2022/07/15 00:35:35;;;;;;;0.50;0.50;;;13.20;99.90;;;;;;4954621;28;20498;-64
2022/07/15 00:38:09;;;;;;;0.60;0.60;;;13.00;99.90;;;;;;4964222;28;20471;-63
2022/07/15 00:40:43;;;;;;;1.10;0.60;;;12.80;99.90;;;;;;4960477;28;20510;-63
2022/07/15 00:43:11;;;;;;;0.50;0.50;;;12.50;99.90;;;;;;4962065;28;20482;-63
2022/07/15 00:45:38;;;;;;;0.70;0.40;;;12.40;99.90;;;;;;4966102;28;20436;-63
2022/07/15 00:48:06;;;;;;;0.40;0.40;;;12.40;99.90;;;;;;4952805;28;20480;-63
2022/07/15 00:50:36;;;;;;;0.40;0.40;;;12.30;99.90;;;;;;4961776;28;20940;-63
2022/07/15 00:53:12;;;;;;;0.80;0.50;;;12.20;99.90;;;;;;4958355;28;20430;-63
2022/07/15 00:55:43;;;;;;;0.30;0.30;;;12.30;99.90;;;;;;4957027;28;20428;-63
2022/07/15 00:58:23;;;;;;;0.47;0.47;;;12.40;99.90;;;;;;4955073;28;20838;-63
2022/07/15 01:00:51;;;;;;;0.40;0.40;;;12.40;99.90;;;;;;4988111;28;20450;-63
2022/07/15 01:03:18;;;;;;;0.57;0.57;;;12.50;99.90;;;;;;4962982;28;20488;-63
2022/07/15 01:05:46;;;;;;;0.40;0.40;;;12.60;99.90;;;;;;4988572;28;20448;-63
2022/07/15 01:08:20;;;;;;;0.60;0.60;;;12.60;99.90;;;;;;4961086;28;20490;-63
2022/07/15 01:13:30;;;;;;;0.35;0.35;;;12.90;99.90;;;;;;4980942;28;20446;-79
2022/07/15 01:15:57;;;;;;;0.63;0.63;;;12.90;99.90;;;;;;4991553;28;20449;-79
2022/07/15 01:18:24;;;;;;;0.50;0.50;;;12.80;99.90;;;;;;4967100;28;20445;-80
2022/07/15 01:20:51;;;;;;;0.40;0.40;;;12.70;99.90;;;;;;4969729;28;20433;-80
2022/07/15 01:23:17;;;;;;;0.70;0.70;;;12.50;99.90;;;;;;4972792;28;21380;-79
2022/07/15 01:25:44;;;;;;;0.63;0.63;;;12.40;99.90;;;;;;4973319;28;20800;-79
2022/07/15 01:28:12;;;;;;;0.40;0.40;;;12.20;99.90;;;;;;4988628;28;20936;-79
2022/07/15 01:30:39;;;;;;;0.50;0.50;;;12.20;99.90;;;;;;4988552;28;20432;-79
2022/07/15 01:33:09;;;;;;;0.30;0.30;;;12.00;99.90;;;;;;4989891;28;20867;-80
2022/07/15 01:35:36;;;;;;;0.38;0.38;;;11.90;99.90;;;;;;4986314;28;20522;-80
2022/07/15 01:38:02;;;;;;;0.50;0.50;;;11.90;99.90;;;;;;4985191;28;20801;-80
2022/07/15 01:40:32;;;;;;;0.50;0.50;;;12.00;99.90;;;;;;4987209;28;20495;-80
2022/07/15 01:42:59;;;;;;;0.50;0.50;;;12.00;99.90;;;;;;4974966;28;20801;-80
2022/07/15 01:45:26;;;;;;;0.57;0.57;;;12.10;99.90;;;;;;4971748;28;20438;-80
2022/07/15 01:47:53;;;;;;;0.60;0.30;;;12.10;99.90;;;;;;4968933;28;20434;-80
2022/07/15 01:50:20;;;;;;;0.70;0.70;;;12.20;99.90;;;;;;4966488;28;20431;-80
2022/07/15 01:52:47;;;;;;;0.55;0.55;;;12.30;99.90;;;;;;4975114;28;20438;-80
2022/07/15 01:55:14;;;;;;;0.40;0.40;;;12.40;99.90;;;;;;4968544;28;20541;-80
2022/07/15 01:57:41;;;;;;;0.40;0.40;;;12.40;99.90;;;;;;4970552;28;20440;-80
2022/07/15 02:00:09;;;;;;;0.52;0.52;;;12.40;99.90;;;;;;4979545;28;20436;-79
2022/07/15 02:02:36;;;;;;;0.60;0.60;;;12.40;99.90;;;;;;4980006;28;20440;-80
2022/07/15 02:05:04;;;;;;;0.50;0.50;;;12.20;99.90;;;;;;4962968;28;20525;-80
2022/07/15 02:07:34;;;;;;;0.30;0.30;;;12.10;99.90;;;;;;4983776;28;20467;-80
2022/07/15 02:10:04;;;;;;;0.43;0.43;;;11.90;99.90;;;;;;4975631;28;20443;-80
2022/07/15 02:12:30;;;;;;;0.38;0.38;;;11.80;99.90;;;;;;4972983;28;20852;-79
2022/07/15 02:14:57;;;;;;;0.60;0.60;;;11.80;99.90;;;;;;4988225;28;20434;-79
2022/07/15 02:17:25;;;;;;;0.60;0.60;;;11.70;99.90;;;;;;4970765;28;20442;-80
2022/07/15 02:19:51;;;;;;;0.40;0.40;;;11.60;99.90;;;;;;4971857;28;20440;-79
2022/07/15 02:22:18;;;;;;;0.43;0.43;;;11.50;99.90;;;;;;4967552;28;20446;-79
2022/07/15 02:24:47;;;;;;;0.70;0.70;;;11.40;99.90;;;;;;4972644;28;20442;-79
2022/07/15 02:27:17;;;;;;;0.70;0.70;;;11.40;99.90;;;;;;4969712;28;20877;-79
2022/07/15 02:29:44;;;;;;;1.00;0.50;;;11.40;99.90;;;;;;4972017;28;20434;-80
2022/07/15 02:32:11;;;;;;;0.50;0.50;;;11.40;99.90;;;;;;4966179;28;20442;-79
2022/07/15 02:34:40;;;;;;;0.38;0.38;;;11.40;99.90;;;;;;4982471;28;20464;-80
2022/07/15 02:37:06;;;;;;;0.40;0.40;;;11.40;99.90;;;;;;4963392;28;20486;-80
2022/07/15 02:39:33;;;;;;;0.47;0.47;;;11.30;99.90;;;;;;4968323;28;20453;-80
2022/07/15 02:42:00;;;;;;;0.60;0.60;;;11.30;99.90;;;;;;4962941;28;20423;-80
2022/07/15 02:44:27;;;;;;;0.40;0.40;;;11.30;99.90;;;;;;4961970;28;20430;-80
2022/07/15 02:46:57;;;;;;;0.52;0.52;;;11.20;99.90;;;;;;4968657;28;20438;-79
2022/07/15 02:49:24;;;;;;;0.40;0.40;;;11.10;99.90;;;;;;4983145;28;20529;-79
2022/07/15 02:51:50;;;;;;;0.90;0.50;;;11.00;99.90;;;;;;4967392;28;20831;-80
2022/07/15 02:54:24;;;;;;;0.47;0.47;;;10.90;99.90;;;;;;4969899;28;20438;-80
2022/07/15 02:56:53;;;;;;;0.70;0.60;;;10.80;99.90;;;;;;4967851;28;20497;-78
2022/07/15 02:59:20;;;;;;;0.43;0.43;;;10.80;99.90;;;;;;4961360;28;20961;-80
2022/07/15 03:01:47;;;;;;;0.50;0.50;;;10.90;99.90;;;;;;4979747;28;20441;-80
2022/07/15 03:04:14;;;;;;;0.68;0.68;;;10.80;99.90;;;;;;4971358;28;20462;-80
2022/07/15 03:06:41;;;;;;;0.50;0.50;;;10.80;99.90;;;;;;4966335;28;20536;-80
2022/07/15 03:09:08;;;;;;;0.40;0.40;;;10.80;99.90;;;;;;4970139;28;21883;-79
2022/07/15 03:11:35;;;;;;;0.30;0.30;;;10.90;99.90;;;;;;4969641;28;20432;-79
2022/07/15 03:14:02;;;;;;;0.40;0.40;;;10.80;99.90;;;;;;4983428;28;20437;-79
2022/07/15 03:16:29;;;;;;;1.10;0.40;;;10.90;99.90;;;;;;4970529;28;20442;-79
2022/07/15 03:18:56;;;;;;;0.40;0.40;;;11.00;99.90;;;;;;4969123;28;20430;-79
2022/07/15 03:21:23;;;;;;;0.50;0.50;;;11.00;99.90;;;;;;4989522;28;20800;-79
2022/07/15 03:23:52;;;;;;;0.30;0.30;;;11.10;99.90;;;;;;4975430;28;20883;-79
2022/07/15 03:26:20;;;;;;;0.50;0.50;;;11.20;99.90;;;;;;4986855;28;20442;-79
2022/07/15 03:28:47;;;;;;;1.10;0.47;;;11.20;99.90;;;;;;4973286;28;20437;-78
2022/07/15 03:31:14;;;;;;;0.30;0.30;;;11.20;99.90;;;;;;4969468;28;20423;-79
2022/07/15 03:33:42;;;;;;;0.50;0.50;;;11.20;99.90;;;;;;4964585;28;20516;-79
2022/07/15 03:36:11;;;;;;;0.30;0.30;;;11.20;99.90;;;;;;4969555;28;20438;-79
2022/07/15 03:38:38;;;;;;;0.73;0.50;;;11.30;99.90;;;;;;4987188;28;20446;-78
2022/07/15 03:41:05;;;;;;;0.30;0.30;;;11.30;99.90;;;;;;4970080;28;20441;-79
2022/07/15 03:43:32;;;;;;;0.40;0.40;;;11.40;99.90;;;;;;4968070;28;20426;-79
2022/07/15 03:45:58;;;;;;;0.50;0.50;;;11.40;99.90;;;;;;4984490;28;20432;-78
2022/07/15 03:48:26;;;;;;;0.52;0.52;;;11.40;99.90;;;;;;4989197;28;20474;-79
2022/07/15 03:50:53;;;;;;;0.60;0.60;;;11.40;99.90;;;;;;4971181;28;20796;-79
2022/07/15 03:53:20;;;;;;;0.50;0.50;;;11.30;99.90;;;;;;4968307;28;20453;-79
2022/07/15 03:55:46;;;;;;;0.50;0.50;;;11.30;99.90;;;;;;4984476;28;20414;-78
2022/07/15 03:58:13;;;;;;;0.30;0.30;;;11.30;99.90;;;;;;5003624;28;20438;-78
2022/07/15 04:00:40;;;;;;;0.70;0.70;;;11.30;99.90;;;;;;4988910;28;20445;-79
2022/07/15 04:03:07;;;;;;;0.45;0.32;;;11.40;99.90;;;;;;4991817;28;20440;-79
2022/07/15 04:05:34;;;;;;;0.60;0.30;;;11.50;99.90;;;;;;4973659;28;20928;-79
2022/07/15 04:08:01;;;;;;;0.38;0.35;;;11.60;99.90;;;;;;4983807;28;20438;-79
2022/07/15 04:10:28;;;;;;;0.40;0.40;;;11.70;99.90;;;;;;4986372;28;20466;-79
2022/07/15 04:12:54;;;;;;;0.60;0.40;;;11.80;99.90;;;;;;4984196;28;20518;-79
2022/07/15 04:15:21;;;;;;;0.55;0.55;;;11.80;99.90;;;;;;4972624;28;20436;-79
2022/07/15 04:17:49;;;;;;;0.50;0.50;;;11.80;99.90;;;;;;4983403;28;20446;-79
2022/07/15 04:20:16;;;;;;;0.40;0.40;;;11.80;99.90;;;;;;4965756;28;20505;-79
2022/07/15 04:22:46;;;;;;;0.40;0.40;;;11.90;99.90;;;;;;4976820;28;20525;-79
2022/07/15 04:25:16;;;;;;;0.43;0.43;;;12.00;99.90;;;;;;4983618;28;20445;-79
2022/07/15 04:27:43;;;;;;;0.50;0.50;;;12.20;99.90;;;;;;4987549;28;20448;-79
2022/07/15 04:30:12;;;;;;;0.60;0.60;;;12.40;99.90;;;;;;4970380;28;20493;-79
2022/07/15 04:32:40;;;;;;;0.30;0.30;;;12.50;99.90;;;;;;4967975;28;20434;-80
2022/07/15 04:35:07;;;;;;;0.50;0.50;;;12.70;99.90;;;;;;4982660;28;20940;-79
2022/07/15 04:37:34;;;;;;;0.40;0.40;;;12.90;99.90;;;;;;4987825;28;20438;-79
2022/07/15 04:40:01;;;;;;;0.35;0.35;;;13.00;99.90;;;;;;4985202;28;20451;-79
2022/07/15 04:42:28;;;;;;;0.60;0.60;;;13.20;99.90;;;;;;4977683;28;20526;-79
2022/07/15 04:44:54;;;;;;;0.50;0.50;;;13.30;99.90;;;;;;4968006;28;20530;-79
2022/07/15 04:47:21;;;;;;;0.40;0.40;;;13.50;99.90;;;;;;4957543;28;20466;-79
2022/07/15 04:52:33;;;;;;;1.15;0.50;;;14.40;99.90;;;;;;4999121;28;20457;-87
2022/07/15 04:55:00;;;;;;;0.40;0.30;;;15.00;99.90;;;;;;4984088;28;20789;-87
2022/07/15 04:57:27;;;;;;;0.30;0.30;;;15.60;99.90;;;;;;4977569;28;20567;-88
2022/07/15 04:59:54;;;;;;;0.28;0.28;;;16.20;99.90;;;;;;4971513;28;20482;-87
2022/07/15 05:02:20;;;;;;;0.32;0.32;;;16.80;99.90;;;;;;4974339;28;20467;-88
2022/07/15 05:04:47;;;;;;;0.30;0.30;;;17.30;99.90;;;;;;4973634;28;20434;-88
2022/07/15 05:07:14;;;;;;;0.40;0.40;;;17.70;99.90;;;;;;4968746;28;20543;-89
2022/07/15 05:09:41;;;;;;;0.30;0.30;;;18.00;99.90;;;;;;4988459;28;20493;-88
2022/07/15 05:12:08;;;;;;;0.43;0.43;;;18.70;99.90;;;;;;4971332;28;20538;-88
2022/07/15 05:14:35;;;;;;;0.40;0.40;;;19.50;99.90;;;;;;4969161;28;20513;-89
2022/07/15 05:17:01;;;;;;;0.40;0.35;;;20.10;99.90;;;;;;4963284;28;20452;-89
2022/07/15 05:19:28;;;;;;;0.40;0.40;;;20.50;99.90;;;;;;4967405;28;20434;-89
2022/07/15 05:21:55;;;;;;;0.40;0.40;;;20.60;99.90;;;;;;4993500;28;20446;-89
2022/07/15 05:24:24;;;;;;;0.40;0.40;;;20.80;99.90;;;;;;4972151;28;20664;-89
2022/07/15 05:26:59;;;;;;;0.50;0.40;;;20.80;99.90;;;;;;4998762;28;20516;-90
2022/07/15 05:29:26;;;;;;;0.65;0.30;;;20.50;99.90;;;;;;4980239;28;20551;-89
2022/07/15 05:31:56;;;;;;;0.40;0.40;;;20.10;99.90;;;;;;4985976;28;20474;-89
2022/07/15 05:34:22;;;;;;;0.50;0.50;;;19.70;99.90;;;;;;4987621;28;20498;-89
2022/07/15 05:36:49;;;;;;;0.47;0.47;;;19.50;99.90;;;;;;4998762;28;20465;-90
2022/07/15 05:39:16;;;;;;;0.30;0.30;;;19.60;99.90;;;;;;4973479;28;20468;-89
2022/07/15 05:41:47;;;;;;;0.40;0.40;;;19.90;99.90;;;;;;4972386;28;20441;-89
2022/07/15 05:44:17;;;;;;;0.40;0.40;;;20.40;99.90;;;;;;4964656;28;20517;-82
2022/07/15 05:46:50;;;;;;;0.30;0.30;;;20.80;99.90;;;;;;4982655;28;20958;-81
2022/07/15 05:49:18;;;;;;;0.50;0.50;;;20.80;99.90;;;;;;4969134;28;20739;-82
2022/07/15 05:51:44;;;;;;;0.50;0.38;;;20.80;99.90;;;;;;4982333;28;20474;-82
2022/07/15 05:54:14;;;;;;;0.30;0.30;;;20.70;99.80;;;;;;4969199;28;20458;-82
2022/07/15 05:56:44;;;;;;;0.60;0.40;;;20.30;99.80;;;;;;4964699;28;20438;-82
2022/07/15 05:59:14;;;;;;;0.60;0.35;;;20.10;99.90;;;;;;4971178;28;20472;-81
2022/07/15 06:01:41;;;;;;;0.30;0.30;;;19.80;99.90;;;;;;4984613;28;20444;-82
2022/07/15 06:04:08;;;;;;;0.30;0.30;;;19.60;99.90;;;;;;4967096;28;20533;-83
2022/07/15 06:06:34;;;;;;;0.30;0.30;;;19.80;99.90;;;;;;4964411;28;20433;-81
2022/07/15 06:09:01;;;;;;;0.30;0.30;;;20.60;99.90;;;;;;4979841;28;20444;-82
2022/07/15 06:11:28;;;;;;;0.40;0.40;;;21.00;99.80;;;;;;4964186;28;20445;-82
2022/07/15 06:13:58;;;;;;;0.28;0.28;;;21.10;99.50;;;;;;4967532;28;20593;-87
2022/07/15 06:16:24;;;;;;;0.30;0.30;;;21.20;99.60;;;;;;4986019;28;20438;-88
2022/07/15 06:18:51;;;;;;;0.22;0.22;;;21.30;99.30;;;;;;4961057;28;20442;-88
2022/07/15 06:21:18;;;;;;;0.28;0.28;;;21.20;99.00;;;;;;4968094;28;20453;-87
2022/07/15 06:23:45;;;;;;;0.50;0.50;;;21.00;99.00;;;;;;4964152;28;20928;-88
2022/07/15 06:26:12;;;;;;;0.32;0.32;;;21.30;98.80;;;;;;4969233;28;20426;-88
2022/07/15 06:28:39;;;;;;;0.40;0.40;;;21.20;98.90;;;;;;4985814;28;20431;-88
2022/07/15 06:31:12;;;;;;;0.20;0.20;;;20.80;98.70;;;;;;4970098;28;20430;-89
2022/07/15 06:33:39;;;;;;;0.30;0.30;;;20.40;99.00;;;;;;4970575;28;20441;-88
2022/07/15 06:36:06;;;;;;;0.30;0.30;;;20.20;99.40;;;;;;4986029;28;20465;-88
2022/07/15 06:38:33;;;;;;;0.30;0.30;;;20.10;99.60;;;;;;4969104;28;20434;-88
2022/07/15 06:41:00;;;;;;;0.20;0.20;;;19.90;99.80;;;;;;4970504;28;20444;-89
2022/07/15 06:43:27;;;;;;;0.23;0.23;;;20.40;99.90;;;;;;4967096;28;20832;-89
2022/07/15 06:45:54;;;;;;;0.20;0.20;;;20.90;99.40;;;;;;4968691;28;20462;-88
2022/07/15 06:48:20;;;;;;;0.30;0.30;;;21.40;99.30;;;;;;4967775;28;20933;-87
2022/07/15 06:50:47;;;;;;;0.30;0.30;;;21.70;98.60;;;;;;4973735;28;20480;-86
2022/07/15 06:53:17;;;;;;;0.40;0.40;;;21.90;98.20;;;;;;4974134;28;20442;-84
2022/07/15 06:55:47;;;;;;;0.25;0.25;;;22.40;98.10;;;;;;4970248;28;20440;-89
2022/07/15 06:58:14;;;;;;;0.40;0.20;;;22.60;97.60;;;;;;4987964;28;21022;-90
2022/07/15 07:00:41;;;;;;;0.20;0.20;;;22.70;97.30;;;;;;4970088;28;20461;-79
2022/07/15 07:03:08;;;;;;;0.30;0.30;;;23.00;97.80;;;;;;4962823;28;20848;-80
2022/07/15 07:05:35;;;;;;;0.30;0.30;;;24.00;97.30;;;;;;4970569;28;20434;-81
2022/07/15 07:08:05;;;;;;;0.30;0.30;;;24.60;96.00;;;;;;4976422;28;20441;-81
2022/07/15 07:10:35;;;;;;;0.35;0.35;;;25.30;95.80;;;;;;4987440;28;20464;-81
2022/07/15 07:13:02;;;;;;;0.30;0.30;;;24.80;95.70;;;;;;4987664;28;20453;-79
2022/07/15 07:15:29;;;;;;;0.38;0.38;;;25.50;95.70;;;;;;4973202;28;20449;-79
2022/07/15 07:17:56;;;;;;;0.38;0.38;;;26.00;94.40;;;;;;4977291;28;20529;-80
2022/07/15 07:20:23;;;;;;;0.30;0.30;;;25.50;94.30;;;;;;4983488;28;20442;-78
2022/07/15 07:22:50;;;;;;;0.60;0.40;;;24.90;94.70;;;;;;4965309;28;20453;-78
2022/07/15 07:25:16;;;;;;;0.30;0.30;;;24.10;95.00;;;;;;4967685;28;20944;-79
2022/07/15 07:27:43;;;;;;;0.40;0.38;;;23.40;95.50;;;;;;4979306;28;20727;-79
2022/07/15 07:30:10;;;;;;;0.30;0.30;;;22.60;96.20;;;;;;4984312;28;20469;-79
2022/07/15 07:32:38;;;;;;;0.20;0.20;;;22.80;96.90;;;;;;4970641;28;20442;-79
2022/07/15 07:35:06;;;;;;;0.28;0.28;;;23.40;96.20;;;;;;4968158;28;20775;-79
2022/07/15 07:37:38;;;;;;;1.10;0.25;;;23.20;96.30;;;;;;4984144;28;20525;-79
2022/07/15 07:40:07;;;;;;;0.30;0.30;;;23.60;96.20;;;;;;4981459;28;20541;-79
2022/07/15 07:42:35;;;;;;;0.30;0.30;;;23.60;95.80;;;;;;4989039;28;20453;-79
2022/07/15 07:45:03;;;;;;;0.30;0.30;;;23.00;96.20;;;;;;4967998;28;20507;-79
2022/07/15 07:47:37;;;;;;;0.30;0.30;;;23.20;96.30;;;;;;4983890;28;20516;-78
2022/07/15 07:50:05;;;;;;;0.30;0.30;;;23.50;96.80;;;;;;4967314;28;20446;-79
2022/07/15 07:52:32;;;;;;;0.38;0.38;;;24.10;96.40;;;;;;4987215;28;20439;-78
2022/07/15 07:54:59;;;;;;;0.40;0.40;;;24.70;95.00;;;;;;4983889;28;20788;-79
2022/07/15 07:57:26;;;;;;;0.30;0.30;;;24.80;95.40;;;;;;4968585;28;20533;-80
2022/07/15 07:59:52;;;;;;;0.30;0.30;;;24.60;94.80;;;;;;4971116;28;20550;-79
2022/07/15 08:02:20;;;;;;;0.20;0.20;;;24.40;95.80;;;;;;4964059;28;20562;-80
2022/07/15 08:04:47;;;;;;;0.30;0.30;;;24.20;95.20;;;;;;4981007;28;20853;-80
2022/07/15 08:07:14;;;;;;;0.30;0.30;;;23.90;95.40;;;;;;4966242;28;20477;-79
2022/07/15 08:09:41;;;;;;;0.40;0.40;;;24.20;95.30;;;;;;4962846;28;20434;-80
2022/07/15 08:12:08;;;;;;;0.30;0.30;;;24.70;94.60;;;;;;4972423;28;20513;-79
2022/07/15 08:14:35;;;;;;;0.30;0.30;;;24.90;95.30;;;;;;4966369;28;20446;-79
2022/07/15 08:17:02;;;;;;;0.30;0.30;;;26.00;94.70;;;;;;4966166;28;20952;-81
2022/07/15 08:19:28;;;;;;;0.20;0.20;;;26.70;94.10;;;;;;4987580;28;20497;-79
2022/07/15 08:21:55;;;;;;;0.30;0.30;;;27.10;93.80;;;;;;4984744;28;20530;-78
2022/07/15 08:24:22;;;;;;;0.40;0.40;;;27.90;92.60;;;;;;4984751;28;20438;-79
2022/07/15 08:26:49;;;;;;;0.30;0.30;;;28.20;93.20;;;;;;4983896;28;20436;-80
2022/07/15 08:29:19;;;;;;;0.28;0.28;;;29.00;91.90;;;;;;4967747;28;20432;-79
2022/07/15 08:31:46;;;;;;;0.40;0.40;;;27.10;91.90;;;;;;4975472;28;20442;-79
2022/07/15 08:34:13;;;;;;;0.30;0.30;;;26.70;92.60;;;;;;4969530;28;20446;-80
2022/07/15 08:36:40;;;;;;;0.30;0.30;;;27.20;92.90;;;;;;4968771;28;20442;-80
2022/07/15 08:39:07;;;;;;;0.50;0.30;;;28.10;92.00;;;;;;4985018;28;20518;-79
2022/07/15 08:41:39;;;;;;;0.20;0.20;;;28.50;91.00;;;;;;4965071;28;20505;-79
2022/07/15 08:44:06;;;;;;;0.65;0.40;;;29.10;90.80;;;;;;4964757;28;20464;-78
2022/07/15 08:46:36;;;;;;;0.30;0.30;;;29.40;90.30;;;;;;4965849;28;20434;-78
2022/07/15 08:49:11;;;;;;;0.35;0.35;;;28.70;90.20;;;;;;4978337;28;20442;-78
2022/07/15 08:51:43;;;;;;;0.30;0.30;;;27.60;90.90;;;;;;4958975;28;20502;-78
2022/07/15 08:54:14;;;;;;;0.30;0.30;;;26.30;91.50;;;;;;4973724;28;20776;-79
2022/07/15 08:56:43;;;;;;;0.40;0.40;;;25.10;92.70;;;;;;4980213;28;20442;-78
2022/07/15 08:59:10;;;;;;;0.30;0.30;;;24.40;93.20;;;;;;4980571;28;20454;-78
2022/07/15 09:01:42;;;;;;;0.50;0.50;;;24.10;93.70;;;;;;4958511;28;20505;-78
2022/07/15 09:04:11;;;;;;;0.35;0.35;;;23.90;93.60;;;;;;4979072;28;22064;-79
2022/07/15 09:06:40;;;;;;;0.50;0.50;;;24.10;93.50;;;;;;4981263;28;20469;-78
2022/07/15 09:09:31;;;;;;;0.30;0.30;;;24.20;93.20;;;;;;4982329;28;20438;-77
2022/07/15 09:12:09;;;;;;;0.47;0.40;;;24.20;93.40;;;;;;4965068;28;20990;-77
2022/07/15 09:14:44;;;;;;;0.50;0.50;;;24.10;93.50;;;;;;4976458;28;20449;-77
2022/07/15 09:17:12;;;;;;;0.40;0.40;;;24.70;93.20;;;;;;4981925;28;20448;-78
2022/07/15 09:20:06;;;;;;;0.47;0.47;;;25.60;92.70;;;;;;4962988;28;20472;-79
2022/07/15 09:22:52;;;;;;;0.37;0.37;;;26.10;92.20;;;;;;4965200;28;20513;-77
2022/07/15 09:25:20;;;;;;;0.40;0.40;;;26.80;91.80;;;;;;4964961;28;20422;-79
2022/07/15 09:27:48;;;;;;;0.40;0.40;;;27.10;91.60;;;;;;4961604;28;20490;-78
2022/07/15 09:36:14;;;;;;;0.55;0.55;;;26.20;91.00;;;;;;4981727;28;20521;-78
2022/07/15 09:38:57;;;;;;;0.50;0.50;;;24.60;91.60;;;;;;4981410;28;20470;-79
2022/07/15 09:41:40;;;;;;;0.50;0.50;;;24.40;92.90;;;;;;4970091;28;20462;-78
2022/07/15 09:44:08;;;;;;;0.60;0.60;;;25.40;92.30;;;;;;4983110;28;20525;-78
2022/07/15 09:46:51;;;;;;;0.40;0.40;;;25.70;91.30;;;;;;4981727;28;20438;-78
2022/07/15 09:49:27;;;;;;;0.50;0.50;;;25.10;91.80;;;;;;4986565;28;20434;-78
2022/07/15 09:51:55;;;;;;;0.50;0.50;;;25.20;92.20;;;;;;4966317;28;20529;-78
2022/07/15 09:54:24;;;;;;;0.45;0.45;;;25.40;91.90;;;;;;4960331;28;20796;-78
2022/07/15 09:56:51;;;;;;;0.55;0.55;;;25.50;91.30;;;;;;4981007;28;20534;-79
2022/07/15 09:59:19;;;;;;;0.40;0.40;;;25.20;92.20;;;;;;4966196;28;20444;-78
2022/07/15 10:01:47;;;;;;;0.55;0.55;;;25.60;91.20;;;;;;4965335;28;20448;-79
2022/07/15 10:04:16;;;;;;;0.50;0.50;;;25.90;91.50;;;;;;4984131;28;20864;-78
2022/07/15 10:06:46;;;;;;;0.60;0.60;;;26.40;91.10;;;;;;4980255;28;20974;-79
2022/07/15 10:09:36;;;;;;;0.57;0.57;;;26.30;90.90;;;;;;4983839;28;20437;-78
2022/07/15 10:12:16;;;;;;;0.50;0.50;;;26.30;90.50;;;;;;4965336;28;20436;-78
2022/07/15 10:15:17;;;;;;;0.50;0.50;;;25.70;91.20;;;;;;4960955;28;21150;-78
2022/07/15 10:17:50;;;;;;;0.50;0.50;;;25.50;91.20;;;;;;4981521;28;20439;-79
2022/07/15 10:20:39;;;;;;;0.40;0.40;;;25.70;91.30;;;;;;4962108;28;20492;-78
2022/07/15 10:23:06;;;;;;;0.50;0.50;;;25.60;91.00;;;;;;4984382;28;20472;-78
2022/07/15 10:25:39;;;;;;;0.50;0.50;;;25.50;90.90;;;;;;4990107;28;20463;-78
2022/07/15 10:28:33;;;;;;;0.40;0.40;;;25.00;91.10;;;;;;4974769;28;20447;-78
2022/07/15 10:31:18;;;;;;;0.40;0.40;;;25.10;91.10;;;;;;4966155;28;20459;-79
2022/07/15 10:34:02;;;;;;;0.60;0.60;;;25.80;91.20;;;;;;4987676;28;20797;-78
2022/07/15 10:36:47;;;;;;;0.50;0.50;;;26.60;91.50;;;;;;4993570;28;20458;-77
2022/07/15 10:39:18;;;;;;;0.52;0.52;;;27.40;90.10;;;;;;4985866;28;20437;-78
2022/07/15 10:41:57;;;;;;;0.50;0.50;;;27.20;88.70;;;;;;4979491;28;20555;-79
2022/07/15 10:44:27;;;;;;;0.50;0.50;;;26.30;89.50;;;;;;4984736;28;20430;-79
2022/07/15 10:47:12;;;;;;;0.50;0.50;;;25.50;89.80;;;;;;4966464;28;20513;-79
2022/07/15 10:49:41;;;;;;;0.60;0.50;;;25.20;90.60;;;;;;4984458;28;20622;-79
2022/07/15 10:52:17;;;;;;;0.60;0.60;;;25.60;90.70;;;;;;4980373;28;20980;-80
2022/07/15 10:55:00;;;;;;;0.50;0.50;;;26.10;90.10;;;;;;4984404;28;20455;-80
2022/07/15 10:57:50;;;;;;;0.40;0.40;;;26.90;88.80;;;;;;4985531;28;20436;-79
2022/07/15 11:00:20;;;;;;;0.30;0.30;;;27.60;88.60;;;;;;4987305;28;20480;-79
2022/07/15 11:03:08;;;;;;;0.40;0.40;;;28.10;87.40;;;;;;4984176;28;20438;-78
2022/07/15 11:05:45;;;;;;;0.60;0.60;;;27.80;86.90;;;;;;4964162;28;20469;-78
2022/07/15 11:08:31;;;;;;;0.43;0.43;;;27.10;86.90;;;;;;4983548;28;20435;-78
2022/07/15 11:11:18;;;;;;;0.50;0.50;;;26.60;88.60;;;;;;4986785;28;20784;-78
2022/07/15 11:13:47;;;;;;;0.50;0.50;;;25.90;88.60;;;;;;4967593;28;21016;-78
2022/07/15 11:16:21;;;;;;;0.50;0.50;;;25.50;88.90;;;;;;4979659;28;20467;-78
2022/07/15 11:18:52;;;;;;;0.40;0.40;;;25.60;90.00;;;;;;4979332;28;20439;-78
2022/07/15 11:21:20;;;;;;;0.47;0.47;;;25.60;89.10;;;;;;4985426;28;21015;-79
2022/07/15 11:23:49;;;;;;;1.00;0.53;;;25.60;90.00;;;;;;4975874;28;20521;-79
2022/07/15 11:26:16;;;;;;;0.43;0.43;;;25.80;89.80;;;;;;4983953;28;20521;-79
2022/07/15 11:28:55;;;;;;;0.40;0.40;;;26.50;90.60;;;;;;4968970;28;20468;-79
2022/07/15 11:31:23;;;;;;;0.40;0.40;;;27.50;88.30;;;;;;4984613;28;21168;-79
2022/07/15 11:33:52;;;;;;;0.50;0.50;;;27.50;86.00;;;;;;4963687;28;20525;-79
2022/07/15 11:36:24;;;;;;;0.65;0.65;;;26.80;87.40;;;;;;4980473;28;20801;-79
2022/07/15 11:38:51;;;;;;;0.60;0.60;;;26.60;87.90;;;;;;4983215;28;20763;-78
2022/07/15 11:46:59;;;;;;;0.50;0.50;;;26.60;88.90;;;;;;4981886;28;20433;-80
2022/07/15 11:49:35;;;;;;;0.40;0.40;;;27.30;87.00;;;;;;4981571;28;20953;-78
2022/07/15 11:52:04;;;;;;;0.40;0.40;;;28.00;85.30;;;;;;4980995;28;20502;-79
2022/07/15 11:54:31;;;;;;;0.50;0.50;;;28.50;86.50;;;;;;4975191;28;20804;-80
2022/07/15 11:57:07;;;;;;;0.50;0.50;;;29.20;86.30;;;;;;4974816;28;20521;-79
2022/07/15 11:59:34;;;;;;;0.50;0.50;;;29.20;83.50;;;;;;4982480;28;20457;-79
2022/07/15 12:02:06;;;;;;;0.40;0.40;;;28.70;84.70;;;;;;4979128;28;20821;-79
2022/07/15 12:04:37;;;;;;;0.40;0.40;;;28.60;83.10;;;;;;4959262;28;20558;-79
2022/07/15 12:07:04;;;;;;;0.50;0.50;;;28.70;84.70;;;;;;4977585;28;20430;-79
2022/07/15 12:09:48;;;;;;;0.40;0.40;;;28.80;85.00;;;;;;4963082;28;20438;-77
2022/07/15 12:12:16;;;;;;;0.40;0.40;;;29.20;83.90;;;;;;4965529;28;20439;-78
2022/07/15 12:14:50;;;;;;;0.45;0.40;;;28.90;84.20;;;;;;4971429;28;20663;-77
2022/07/15 12:17:18;;;;;;;0.30;0.30;;;28.00;83.60;;;;;;4960399;28;20452;-79
2022/07/15 12:19:53;;;;;;;0.30;0.30;;;27.40;85.00;;;;;;4985475;28;20438;-78
2022/07/15 12:22:20;;;;;;;0.40;0.40;;;27.10;85.00;;;;;;4983041;28;20441;-78
2022/07/15 12:24:52;;;;;;;0.40;0.40;;;26.60;85.20;;;;;;4968210;28;20434;-78
2022/07/15 12:27:35;;;;;;;0.70;0.40;;;26.20;85.80;;;;;;4985548;28;20468;-79
2022/07/15 12:30:05;;;;;;;0.40;0.40;;;26.70;87.70;;;;;;4983315;28;20929;-79
2022/07/15 12:32:35;;;;;;;0.38;0.38;;;27.60;85.20;;;;;;4966746;28;20587;-79
2022/07/15 12:35:05;;;;;;;0.30;0.30;;;27.60;84.80;;;;;;4984231;28;20501;-79
2022/07/15 12:37:35;;;;;;;0.50;0.50;;;27.20;85.10;;;;;;4986668;28;20430;-79
2022/07/15 12:40:05;;;;;;;0.40;0.40;;;27.40;85.20;;;;;;4975886;28;20790;-79
2022/07/15 12:42:44;;;;;;;0.47;0.47;;;27.70;84.70;;;;;;4977405;28;20466;-79
2022/07/15 12:45:16;;;;;;;0.50;0.50;;;27.70;84.10;;;;;;4966813;28;20450;-80
2022/07/15 12:48:04;;;;;;;0.40;0.40;;;27.70;83.70;;;;;;4966663;28;20446;-79
2022/07/15 12:50:43;;;;;;;0.50;0.50;;;27.10;84.30;;;;;;4982444;28;20437;-79
2022/07/15 12:53:17;;;;;;;0.60;0.47;;;26.30;85.30;;;;;;4986589;28;20531;-79
2022/07/15 12:55:46;;;;;;;0.50;0.50;;;25.50;86.40;;;;;;4968041;28;20440;-79
2022/07/15 12:58:15;;;;;;;0.50;0.50;;;25.20;87.80;;;;;;4957696;28;20451;-79
2022/07/15 13:00:44;;;;;;;0.32;0.32;;;25.10;87.90;;;;;;4982779;28;20442;-79
2022/07/15 13:03:22;;;;;;;0.33;0.33;;;25.40;87.30;;;;;;4981125;28;20763;-80
2022/07/15 13:05:55;;;;;;;0.38;0.38;;;25.80;87.10;;;;;;4987124;28;20489;-80
2022/07/15 13:08:36;;;;;;;0.50;0.47;;;26.50;86.30;;;;;;4983253;28;20438;-80
2022/07/15 13:11:05;;;;;;;0.40;0.40;;;26.90;86.70;;;;;;4982084;28;20493;-79
2022/07/15 13:13:35;;;;;;;0.40;0.32;;;27.20;83.00;;;;;;4968547;28;20462;-79
2022/07/15 13:16:03;;;;;;;0.43;0.43;;;26.50;84.40;;;;;;4951999;28;20549;-79
2022/07/15 13:18:31;;;;;;;0.52;0.52;;;25.90;85.10;;;;;;4973951;28;20448;-80